Nickerson, NE (68044)

05:11 AM CDT del 01 novembre 2014 (GMT -0500)
APRSWXNET Fremont NE US | Change Station
CLOSE
Current Station
Stazione meteo personale
Location: Fremont, NE
Altitudine: 1190 ft
Stazioni meteo nelle vicinanze

Alt. 1190 ft 41.45 °N, 96.48 °W | Updated 38 minutes ago

Sereno
Sereno
30 °F
Sembra 30 °F
N
3
Vento Variabile Vento da SSO
Gusts 0.0 mph

Oggi
Massima -- | Minima -- °F
--% Possibilità di precip.
Ieri
Massima -- | Minima -- °F
Precip. -- in
7:57 AM 6:20 PM
Gobba a ponente, 65% visible
Pressione 30.41 in
Visibilità 10.0 miglia
Nuvole Sereno
Raffreddamento del vento 30 °F
Punto di rugiada 27 °F
Umidità 89%
Piovosità -999.00 in
Spessore del manto nevoso Non disponibile.
Raggi UV 0 fuori da 12
Polline .10 fuori da 12
Qualità dell'aria Non disponibile.
Flu Activity Non disponibile.
METAR KFET 010935Z AUTO 13007KT 10SM CLR M01/M06 A3041 RMK AO2 T10101058

More Conditions Fewer Conditions

Pressione 30.41 in
Visibilità 10.0 miglia
Nuvole Sereno
Raffreddamento del vento 30 °F
Punto di rugiada 27 °F
Umidità 89%
Piovosità -999.00 in
Spessore del manto nevoso Non disponibile.
Raggi UV 0 fuori da 12
Polline .10 fuori da 12
Qualità dell'aria Non disponibile.
Flu Activity Non disponibile.
METAR KFET 010935Z AUTO 13007KT 10SM CLR M01/M06 A3041 RMK AO2 T10101058

More Conditions Fewer Conditions

10-Day Weather Forecast

Almanac

Astronomia

Nov. 01, 2014 Alba Tramonto
Ora attuale
Crepuscolo civile
Crepuscolo nautico
Crepuscolo astronomico
Luna
Estensione della luce visibile
Lunghezza del giorno
Tomorrow will be .
, % of the Moon is Illuminated

Gli estremi di oggi

State Highs State Lows

Community

WunderPhotos

Upload Photos

1,766,874 foto caricate!

WunderBlogs® & News

Nearby

Qualità dell'aria

  Qualità dell'aria Indice AQ Inquinante
Not available.

Profondità neve

Stazione Profondità Altitudine

Attività sismica

Città  Distanza Mag. Data & Ora
Minimo Magnitudo Mostrato è 2.5.

Temperature delle acque costiere

Località Temperatura

Stazioni meteo nelle vicinanze